Time;durP1;ratioP1;P1;durP2;ratioP2;P2;SDS_P1;SDS_P2;PMS_P1;PMS_P2;Temp;Humidity;BMP_temperature;BMP_pressure;BME280_temperature;BME280_humidity;BME280_pressure;Samples;Min_cycle;Max_cycle;Signal;HPM_P1;HPM_P2
2023/02/22 00:01:17;;;;;;;1.90;1.37;;;4.40;99.90;4.20;96838.00;;;;5030044;28;20417;-71
2023/02/22 00:04:09;;;;;;;2.30;0.90;;;4.20;99.90;4.20;96833.00;;;;5026719;28;20443;-68
2023/02/22 00:07:00;;;;;;;0.93;0.93;;;3.80;99.90;4.40;96832.00;;;;5018720;28;20441;-69
2023/02/22 00:09:48;;;;;;;0.93;0.87;;;3.70;99.90;4.90;96838.00;;;;5029115;28;20424;-67
2023/02/22 00:12:37;;;;;;;3.40;1.23;;;3.80;99.90;4.70;96831.00;;;;5029945;28;20425;-68
2023/02/22 00:15:27;;;;;;;1.70;0.80;;;3.90;99.90;4.70;96829.00;;;;5030667;28;20464;-69
2023/02/22 00:18:18;;;;;;;2.77;0.67;;;3.90;99.90;4.70;96841.00;;;;5028883;28;20456;-69
2023/02/22 00:21:10;;;;;;;1.27;1.17;;;3.90;99.90;5.10;96842.00;;;;5031074;28;20432;-68
2023/02/22 00:23:58;;;;;;;1.33;1.00;;;4.00;99.90;5.00;96843.00;;;;5023841;28;20428;-68
2023/02/22 00:26:47;;;;;;;4.80;1.20;;;4.00;99.90;4.30;96842.00;;;;5022719;28;20543;-68
2023/02/22 00:29:36;;;;;;;1.33;0.83;;;3.90;99.90;4.00;96842.00;;;;5029560;28;20536;-70
2023/02/22 00:32:26;;;;;;;0.60;0.60;;;3.60;99.90;4.00;96840.00;;;;5029308;28;20451;-70
2023/02/22 00:35:15;;;;;;;1.20;1.13;;;3.60;99.90;4.40;96848.00;;;;5030030;28;20451;-69
2023/02/22 00:38:05;;;;;;;1.17;1.10;;;3.40;99.90;4.70;96841.00;;;;5029233;28;20456;-69
2023/02/22 00:40:54;;;;;;;0.80;0.80;;;4.00;99.90;4.50;96839.00;;;;5029590;28;20428;-69
2023/02/22 00:43:43;;;;;;;1.13;1.03;;;3.40;99.90;4.30;96841.00;;;;5029012;28;20462;-71
2023/02/22 00:46:32;;;;;;;4.83;0.90;;;;;4.10;96839.00;;;;5027949;28;20815;-69
2023/02/22 00:49:21;;;;;;;0.80;0.80;;;;;4.30;96854.00;;;;5029395;28;20494;-68
2023/02/22 00:52:10;;;;;;;1.13;1.07;;;;;4.30;96846.00;;;;5028797;28;20459;-68
2023/02/22 00:55:01;;;;;;;1.30;0.90;;;;;4.20;96839.00;;;;5028245;28;20436;-70
2023/02/22 00:57:50;;;;;;;1.10;1.00;;;3.50;99.90;3.90;96845.00;;;;5029150;28;20464;-67
2023/02/22 01:00:41;;;;;;;7.60;0.93;;;3.50;99.90;4.20;96844.00;;;;5029233;28;20439;-70
2023/02/22 01:03:31;;;;;;;1.47;0.70;;;3.50;99.90;4.60;96837.00;;;;5027907;28;20435;-67
2023/02/22 01:06:21;;;;;;;1.23;0.60;;;3.60;99.90;3.80;96833.00;;;;5028380;28;20603;-66
2023/02/22 01:09:10;;;;;;;0.90;0.90;;;3.80;99.90;4.00;96838.00;;;;5029981;28;20436;-67
2023/02/22 01:12:01;;;;;;;0.80;0.80;;;3.50;99.90;4.20;96832.00;;;;5020730;28;20789;-68
2023/02/22 01:14:50;;;;;;;0.70;0.70;;;;;4.50;96838.00;;;;5028529;28;20416;-68
2023/02/22 01:17:42;;;;;;;2.13;1.03;;;3.50;99.90;4.60;96842.00;;;;5027978;28;20531;-71
2023/02/22 01:20:32;;;;;;;1.03;0.93;;;3.60;99.90;4.60;96842.00;;;;5029492;28;20439;-72
2023/02/22 01:23:21;;;;;;;3.77;1.50;;;3.60;99.90;4.30;96844.00;;;;5029053;28;20479;-71
2023/02/22 01:26:10;;;;;;;1.23;1.13;;;3.60;99.90;4.30;96840.00;;;;5026102;28;20993;-70
2023/02/22 01:29:00;;;;;;;1.33;1.00;;;3.50;99.90;4.40;96842.00;;;;5028823;28;20475;-67
2023/02/22 01:31:53;;;;;;;0.77;0.77;;;3.60;99.90;4.80;96845.00;;;;5029686;28;20420;-68
2023/02/22 01:34:42;;;;;;;0.93;0.93;;;3.60;99.90;4.90;96844.00;;;;5022240;28;20439;-68
2023/02/22 01:37:31;;;;;;;1.03;0.93;;;3.70;99.90;4.30;96848.00;;;;5019007;28;20475;-68
2023/02/22 01:40:23;;;;;;;0.90;0.90;;;3.60;99.90;4.40;96843.00;;;;5029280;28;20811;-68
2023/02/22 01:43:21;;;;;;;0.80;0.80;;;3.50;99.90;4.50;96844.00;;;;5028819;28;20947;-68
2023/02/22 01:46:23;;;;;;;1.07;0.97;;;3.50;99.90;4.20;96842.00;;;;5029362;28;20495;-68
2023/02/22 01:49:14;;;;;;;3.93;1.17;;;3.40;99.90;4.20;96834.00;;;;5027954;28;20432;-68
2023/02/22 01:52:07;;;;;;;1.50;1.10;;;3.30;99.90;4.10;96839.00;;;;5038699;28;20428;-68
2023/02/22 01:54:58;;;;;;;1.33;0.70;;;3.30;99.90;3.70;96827.00;;;;5028770;28;20432;-68
2023/02/22 01:57:49;;;;;;;1.13;1.03;;;3.20;99.90;3.60;96826.00;;;;5028681;28;20472;-70
2023/02/22 02:00:38;;;;;;;1.70;1.13;;;3.00;99.90;3.40;96826.00;;;;5028666;28;20425;-68
2023/02/22 02:03:34;;;;;;;1.37;0.87;;;2.90;99.90;3.60;96830.00;;;;5030524;28;20931;-68
2023/02/22 02:06:22;;;;;;;1.37;1.20;;;2.80;99.90;3.60;96828.00;;;;5033195;28;20441;-69
2023/02/22 02:09:18;;;;;;;1.03;1.00;;;2.80;99.90;3.30;96825.00;;;;5032229;28;20430;-69
2023/02/22 02:12:11;;;;;;;0.83;0.83;;;2.70;99.90;3.10;96819.00;;;;5026799;28;20416;-68
2023/02/22 02:15:23;;;;;;;1.10;1.00;;;2.60;99.90;3.30;96824.00;;;;5032311;28;20432;-69
2023/02/22 02:18:13;;;;;;;1.00;0.63;;;2.60;99.90;3.80;96837.00;;;;5031376;28;20472;-68
2023/02/22 02:21:39;;;;;;;3.10;1.40;;;2.70;99.90;3.80;96831.00;;;;5031072;28;20432;-69
2023/02/22 02:25:11;;;;;;;1.30;1.20;;;2.80;99.90;3.60;96828.00;;;;5022425;28;20424;-70
2023/02/22 02:29:05;;;;;;;1.47;1.37;;;2.70;99.90;3.60;96832.00;;;;5017192;28;20990;-68
2023/02/22 02:32:22;;;;;;;1.10;1.00;;;2.70;99.90;3.40;96826.00;;;;5031634;28;20479;-68
2023/02/22 02:35:20;;;;;;;2.83;1.23;;;2.60;99.90;3.60;96828.00;;;;5028331;28;20448;-68
2023/02/22 02:38:22;;;;;;;1.30;1.00;;;2.60;99.90;3.60;96838.00;;;;5030704;28;20460;-70
2023/02/22 02:41:15;;;;;;;2.00;0.93;;;2.70;99.90;3.60;96826.00;;;;5032280;28;20428;-69
2023/02/22 02:44:12;;;;;;;2.10;0.93;;;2.70;99.90;3.60;96830.00;;;;5032603;28;21210;-69
2023/02/22 02:47:06;;;;;;;2.20;1.03;;;2.70;99.90;3.70;96835.00;;;;5033004;28;20967;-69
2023/02/22 02:50:03;;;;;;;0.73;0.73;;;2.40;99.90;3.80;96828.00;;;;5031443;28;20425;-69
2023/02/22 02:52:55;;;;;;;2.53;1.10;;;2.80;99.90;3.30;96828.00;;;;5031442;28;20439;-68
2023/02/22 02:55:44;;;;;;;1.00;0.90;;;2.70;99.90;2.80;96824.00;;;;5032548;28;20507;-71
2023/02/22 02:58:33;;;;;;;2.20;1.23;;;2.50;99.90;2.70;96815.00;;;;5032000;28;20466;-69
2023/02/22 03:01:45;;;;;;;0.73;0.73;;;2.30;99.90;2.80;96817.00;;;;5030175;28;20499;-70
2023/02/22 03:04:54;;;;;;;0.97;0.97;;;2.20;99.90;2.60;96813.00;;;;5031857;28;20428;-71
2023/02/22 03:07:54;;;;;;;2.07;1.23;;;2.30;99.90;2.70;96814.00;;;;5018069;28;20986;-70
2023/02/22 03:10:53;;;;;;;1.27;1.03;;;2.00;99.90;2.80;96826.00;;;;5030580;28;20483;-69
2023/02/22 03:13:54;;;;;;;0.70;0.70;;;2.20;99.90;2.70;96809.00;;;;5029322;28;21393;-70
2023/02/22 03:16:49;;;;;;;0.90;0.90;;;2.10;99.90;2.90;96820.00;;;;5030622;28;20450;-70
2023/02/22 03:19:45;;;;;;;2.20;1.30;;;2.10;99.90;3.10;96822.00;;;;5030170;28;20468;-69
2023/02/22 03:22:42;;;;;;;1.00;0.90;;;2.20;99.90;3.00;96810.00;;;;5030295;28;20425;-70
2023/02/22 03:25:36;;;;;;;1.20;1.10;;;2.20;99.90;2.90;96817.00;;;;5029894;28;20413;-71
2023/02/22 03:28:28;;;;;;;2.10;1.27;;;2.20;99.90;2.90;96825.00;;;;5124512;23;20951;-85
2023/02/22 03:31:22;;;;;;;1.27;1.17;;;2.90;99.90;3.30;96822.00;;;;5102541;28;20956;-85
2023/02/22 03:34:17;;;;;;;0.93;0.93;;;2.30;99.90;3.50;96828.00;;;;5092480;28;20429;-87
2023/02/22 03:37:13;;;;;;;1.60;1.03;;;2.40;99.90;3.30;96826.00;;;;5092028;28;20807;-88
2023/02/22 03:40:12;;;;;;;0.80;0.80;;;2.30;99.90;2.90;96823.00;;;;5052025;28;21355;-86
2023/02/22 03:43:07;;;;;;;1.90;1.50;;;2.30;99.90;2.90;96827.00;;;;5065761;28;20412;-85
2023/02/22 03:45:59;;;;;;;1.10;1.10;;;2.00;99.90;3.00;96828.00;;;;5045186;28;20415;-84
2023/02/22 03:48:53;;;;;;;1.00;1.00;;;2.30;99.90;3.00;96826.00;;;;5064225;28;20437;-85
2023/02/22 03:51:42;;;;;;;1.30;1.17;;;2.20;99.90;2.60;96827.00;;;;5052472;28;20969;-88
2023/02/22 03:54:33;;;;;;;1.57;1.23;;;2.20;99.90;2.50;96827.00;;;;5051521;28;20434;-86
2023/02/22 03:57:29;;;;;;;1.30;1.23;;;3.90;99.90;1.90;96822.00;;;;5056257;28;20945;-88
2023/02/22 04:00:23;;;;;;;1.07;1.03;;;1.90;99.90;1.70;96819.00;;;;5057787;28;20467;-84
2023/02/22 04:03:12;;;;;;;3.53;1.30;;;1.60;99.90;1.80;96825.00;;;;5084769;28;20437;-86
2023/02/22 04:06:04;;;;;;;1.40;1.20;;;1.40;99.90;2.10;96818.00;;;;5093501;28;20417;-85
2023/02/22 04:08:53;;;;;;;1.67;1.20;;;2.70;99.90;2.00;96820.00;;;;5071043;28;20439;-85
2023/02/22 04:11:42;;;;;;;1.43;1.33;;;2.40;99.90;2.30;96834.00;;;;5054134;28;20950;-86
2023/02/22 04:14:31;;;;;;;1.47;1.37;;;1.40;99.90;2.30;96837.00;;;;5053455;28;20961;-86
2023/02/22 04:17:24;;;;;;;3.00;1.43;;;1.60;99.90;2.60;96826.00;;;;5065152;28;20416;-85
2023/02/22 04:20:15;;;;;;;2.90;1.37;;;2.00;99.90;2.70;96833.00;;;;5047828;28;20471;-85
2023/02/22 04:23:06;;;;;;;2.07;1.40;;;3.30;99.90;2.70;96832.00;;;;5063979;28;20414;-86
2023/02/22 04:25:55;;;;;;;1.57;1.27;;;1.90;99.90;2.90;96828.00;;;;5087553;28;20409;-85
2023/02/22 04:28:44;;;;;;;1.10;1.00;;;1.80;99.90;2.80;96832.00;;;;5086721;28;20441;-85
2023/02/22 04:31:33;;;;;;;1.83;1.20;;;1.70;99.90;2.70;96823.00;;;;5069423;28;20453;-86
2023/02/22 04:34:24;;;;;;;4.23;1.40;;;3.50;99.90;2.60;96819.00;;;;5054611;28;20959;-85
2023/02/22 04:37:13;;;;;;;3.23;1.30;;;1.90;99.90;2.80;96822.00;;;;5053191;28;20427;-87
2023/02/22 04:40:06;;;;;;;6.87;1.70;;;1.80;99.90;2.80;96824.00;;;;5052855;28;20506;-87
2023/02/22 04:42:56;;;;;;;2.23;1.57;;;0.30;99.90;2.10;96823.00;;;;5054919;28;20465;-87
2023/02/22 04:45:45;;;;;;;2.83;1.50;;;2.10;99.90;2.30;96824.00;;;;5065483;28;20411;-85
2023/02/22 04:48:37;;;;;;;1.73;1.40;;;1.70;99.90;2.50;96821.00;;;;5064189;28;20426;-86
2023/02/22 04:51:27;;;;;;;1.50;1.40;;;2.30;99.90;2.10;96814.00;;;;5061196;28;20434;-86
2023/02/22 04:54:17;;;;;;;3.37;2.40;;;3.90;99.90;1.80;96823.00;;;;5053645;28;20854;-87
2023/02/22 04:57:05;;;;;;;4.57;1.50;;;1.50;99.90;1.80;96817.00;;;;5065728;28;20415;-86
2023/02/22 04:59:55;;;;;;;1.67;1.27;;;-0.60;99.90;2.30;96822.00;;;;5072781;28;20458;-85
2023/02/22 05:02:44;;;;;;;1.40;1.30;;;1.40;99.90;2.30;96824.00;;;;5077274;28;20414;-86
2023/02/22 05:05:33;;;;;;;2.00;1.87;;;1.50;99.90;2.20;96821.00;;;;5062909;28;20429;-85
2023/02/22 05:08:24;;;;;;;1.97;1.77;;;2.10;99.90;1.90;96818.00;;;;5071385;28;20799;-85
2023/02/22 05:11:15;;;;;;;2.00;1.87;;;1.60;99.90;1.80;96810.00;;;;5060912;28;20481;-86
2023/02/22 05:14:04;;;;;;;3.83;1.70;;;1.30;99.90;2.10;96813.00;;;;5053015;28;20408;-84
2023/02/22 05:16:55;;;;;;;1.77;1.60;;;2.30;99.90;2.20;96813.00;;;;5052289;28;20427;-87
2023/02/22 05:19:46;;;;;;;3.93;1.87;;;-1.00;99.90;2.20;96807.00;;;;5069251;28;20458;-84
2023/02/22 05:22:36;;;;;;;2.23;2.03;;;1.60;99.90;2.20;96807.00;;;;5081863;28;20503;-85
2023/02/22 05:25:27;;;;;;;1.73;1.60;;;1.50;99.90;2.30;96807.00;;;;5075168;28;20411;-88
2023/02/22 05:28:17;;;;;;;6.13;2.10;;;1.30;99.90;1.90;96806.00;;;;5056032;28;20787;-84
2023/02/22 05:31:07;;;;;;;1.70;1.60;;;2.00;99.90;1.80;96801.00;;;;5063340;28;20496;-87
2023/02/22 05:34:05;;;;;;;2.60;1.87;;;1.30;99.90;1.50;96801.00;;;;5062289;28;20739;-84
2023/02/22 05:37:02;;;;;;;2.57;2.00;;;1.80;99.90;1.60;96801.00;;;;5066848;28;20433;-84
2023/02/22 05:39:54;;;;;;;3.47;2.37;;;1.60;99.90;1.80;96807.00;;;;5057140;28;20470;-85
2023/02/22 05:42:46;;;;;;;2.40;2.20;;;-1.80;99.90;1.40;96801.00;;;;5058303;28;20787;-85
2023/02/22 05:45:38;;;;;;;2.80;2.10;;;1.30;99.90;1.90;96810.00;;;;5074769;28;20430;-85
2023/02/22 05:48:30;;;;;;;1.90;1.63;;;1.10;99.90;2.10;96812.00;;;;5063631;28;20444;-88
2023/02/22 05:51:20;;;;;;;3.37;2.67;;;0.50;99.90;1.90;96812.00;;;;5076014;28;20473;-88
2023/02/22 05:54:09;;;;;;;2.33;2.13;;;1.20;99.90;2.10;96818.00;;;;5075833;28;20803;-87
2023/02/22 05:57:04;;;;;;;6.23;1.97;;;1.60;99.90;2.20;96810.00;;;;5075652;28;20427;-85
2023/02/22 05:59:57;;;;;;;4.03;2.63;;;1.30;99.90;1.80;96805.00;;;;5075616;28;20458;-84
2023/02/22 06:02:46;;;;;;;10.43;1.83;;;2.20;99.90;1.70;96828.00;;;;5078658;28;20487;-84
2023/02/22 06:05:35;;;;;;;1.80;1.43;;;3.90;99.90;1.40;96808.00;;;;5094678;28;20439;-86
2023/02/22 06:08:25;;;;;;;4.20;2.90;;;1.30;99.90;1.60;96820.00;;;;5073031;28;20791;-85
2023/02/22 06:11:15;;;;;;;4.47;2.20;;;0.80;99.90;1.90;96827.00;;;;5075034;28;20442;-85
2023/02/22 06:14:05;;;;;;;3.87;3.13;;;1.40;99.90;2.00;96832.00;;;;5076147;28;20421;-86
2023/02/22 06:17:05;;;;;;;3.10;1.97;;;3.30;99.90;2.00;96824.00;;;;5076836;28;20419;-85
2023/02/22 06:19:55;;;;;;;9.33;3.17;;;1.90;99.90;1.80;96826.00;;;;5075440;28;20478;-85
2023/02/22 06:22:47;;;;;;;4.53;3.37;;;3.30;99.90;1.70;96828.00;;;;5069344;28;20953;-88
2023/02/22 06:25:36;;;;;;;3.67;2.97;;;1.20;99.90;1.40;96825.00;;;;5060926;28;20431;-86
2023/02/22 06:28:25;;;;;;;7.47;3.93;;;3.60;99.90;1.60;96829.00;;;;5067143;28;20442;-85
2023/02/22 06:31:17;;;;;;;3.67;2.40;;;1.00;99.90;1.70;96832.00;;;;5075548;28;20450;-84
2023/02/22 06:34:14;;;;;;;5.17;3.60;;;1.10;99.90;2.00;96832.00;;;;5056086;28;20438;-86
2023/02/22 06:37:04;;;;;;;5.30;3.90;;;3.20;99.90;2.20;96832.00;;;;5047886;28;20419;-86
2023/02/22 06:39:54;;;;;;;3.37;3.10;;;1.70;99.90;2.10;96831.00;;;;5072855;28;20470;-85
2023/02/22 06:42:43;;;;;;;4.63;3.67;;;1.60;99.90;2.10;96833.00;;;;5055061;28;20441;-87
2023/02/22 06:45:33;;;;;;;4.23;3.33;;;3.40;99.90;2.10;96832.00;;;;5054246;28;20427;-86
2023/02/22 06:48:22;;;;;;;4.67;2.90;;;1.30;99.90;2.20;96829.00;;;;5057571;28;20435;-85
2023/02/22 06:51:16;;;;;;;3.33;2.60;;;1.30;99.90;1.90;96834.00;;;;5074907;28;20442;-87
2023/02/22 06:54:07;;;;;;;8.37;5.20;;;2.00;99.90;1.90;96835.00;;;;5074007;28;20431;-86
2023/02/22 06:57:20;;;;;;;11.23;3.37;;;1.30;99.90;2.10;96842.00;;;;5070322;28;20438;-85
2023/02/22 07:00:11;;;;;;;4.57;3.60;;;-0.40;99.90;2.40;96843.00;;;;5071666;28;20454;-85
2023/02/22 07:03:01;;;;;;;5.17;4.20;;;1.50;99.90;2.70;96851.00;;;;5072467;28;20421;-85
2023/02/22 07:05:50;;;;;;;7.73;4.50;;;1.70;99.90;3.00;96852.00;;;;5073825;28;20928;-86
2023/02/22 07:08:41;;;;;;;6.73;3.53;;;2.00;99.90;3.00;96852.00;;;;5074337;28;20425;-87
2023/02/22 07:11:30;;;;;;;8.53;4.40;;;3.80;99.90;3.00;96856.00;;;;5068648;28;20450;-85
2023/02/22 07:14:19;;;;;;;3.07;2.70;;;2.10;99.90;2.90;96846.00;;;;5063208;28;20411;-87
2023/02/22 07:17:10;;;;;;;5.43;3.07;;;2.10;99.90;3.00;96854.00;;;;5073453;28;20427;-85
2023/02/22 07:19:59;;;;;;;3.87;3.23;;;2.10;99.90;3.10;96850.00;;;;5054339;28;20427;-85
2023/02/22 07:22:49;;;;;;;6.77;3.87;;;3.40;99.90;3.20;96853.00;;;;5072247;28;20423;-87
2023/02/22 07:25:41;;;;;;;6.20;3.30;;;2.30;99.90;3.40;96853.00;;;;5058841;28;20414;-87
2023/02/22 07:28:32;;;;;;;8.17;4.70;;;2.40;99.90;3.50;96848.00;;;;5074037;28;20903;-84
2023/02/22 07:31:42;;;;;;;5.30;4.13;;;3.20;99.90;3.90;96855.00;;;;5074312;28;20528;-85
2023/02/22 07:34:36;;;;;;;8.43;4.50;;;2.00;99.90;3.80;96863.00;;;;5069876;28;20417;-85
2023/02/22 07:37:34;;;;;;;6.33;4.10;;;3.30;99.90;3.70;96859.00;;;;5085097;28;20459;-86
2023/02/22 07:40:29;;;;;;;9.10;3.97;;;1.50;99.90;3.60;96847.00;;;;5068873;28;20470;-85
2023/02/22 07:43:23;;;;;;;6.80;3.90;;;2.60;99.90;4.00;96845.00;;;;5056223;28;20799;-85
2023/02/22 07:49:39;;;;;;;3.90;3.27;;;3.30;99.90;4.10;96843.00;;;;5074709;28;20431;-86
2023/02/22 07:52:29;;;;;;;6.33;4.73;;;5.90;99.90;4.20;96847.00;;;;5071175;28;20455;-85
2023/02/22 07:55:26;;;;;;;10.40;4.40;;;3.20;99.90;4.10;96837.00;;;;5064814;28;20423;-86
2023/02/22 07:58:16;;;;;;;5.93;3.77;;;3.30;99.90;4.60;96852.00;;;;5078836;28;20427;-87
2023/02/22 08:01:10;;;;;;;3.97;3.33;;;3.60;99.90;4.80;96859.00;;;;5077947;28;21018;-86
2023/02/22 08:04:01;;;;;;;6.53;2.93;;;3.90;99.90;4.90;96851.00;;;;5084386;28;20422;-85
2023/02/22 08:07:04;;;;;;;10.17;3.80;;;3.80;99.90;5.50;96844.00;;;;5058632;28;20793;-87
2023/02/22 08:09:54;;;;;;;5.27;3.47;;;3.80;99.90;5.70;96859.00;;;;5058483;28;20439;-86
2023/02/22 08:12:44;;;;;;;11.63;3.73;;;3.30;99.90;5.90;96856.00;;;;5061403;28;20469;-86
2023/02/22 08:15:36;;;;;;;4.93;3.60;;;4.90;99.90;6.10;96861.00;;;;5084165;28;20473;-87
2023/02/22 08:18:27;;;;;;;9.80;3.53;;;4.80;99.90;6.30;96854.00;;;;5087784;28;20426;-87
2023/02/22 08:21:17;;;;;;;3.90;3.47;;;4.00;99.90;6.60;96851.00;;;;5080954;28;20462;-87
2023/02/22 08:24:08;;;;;;;7.23;4.00;;;5.20;99.90;6.80;96858.00;;;;5060115;28;20220;-85
2023/02/22 08:26:58;;;;;;;4.73;2.77;;;4.90;99.90;6.90;96852.00;;;;5072420;28;20206;-86
2023/02/22 08:29:48;;;;;;;3.93;2.60;;;5.50;99.90;6.80;96853.00;;;;5068360;28;20219;-87
2023/02/22 08:32:41;;;;;;;4.47;4.00;;;5.90;99.90;7.30;96851.00;;;;5061376;28;20217;-86
2023/02/22 08:35:33;;;;;;;5.97;3.57;;;5.80;99.90;7.70;96844.00;;;;5079434;28;20202;-86
2023/02/22 08:38:27;;;;;;;4.33;3.13;;;6.20;99.90;7.90;96854.00;;;;5080042;28;20740;-86
2023/02/22 08:41:18;;;;;;;4.93;3.20;;;6.30;99.90;8.10;96848.00;;;;5087463;28;20219;-87
2023/02/22 08:44:10;;;;;;;10.83;3.87;;;4.80;99.90;8.20;96847.00;;;;5079630;28;20199;-85
2023/02/22 08:47:00;;;;;;;5.63;3.57;;;5.70;99.90;8.40;96851.00;;;;5077975;28;20463;-86
2023/02/22 08:49:51;;;;;;;5.77;3.60;;;6.90;99.90;8.80;96850.00;;;;5094383;28;20206;-87
2023/02/22 08:52:42;;;;;;;5.07;3.87;;;7.10;99.90;8.60;96846.00;;;;5061022;28;20216;-86
2023/02/22 08:55:37;;;;;;;14.43;4.23;;;7.20;99.90;8.70;96847.00;;;;5075057;28;20659;-86
2023/02/22 08:58:27;;;;;;;6.83;3.33;;;7.40;99.90;9.20;96851.00;;;;5080561;28;20189;-87
2023/02/22 09:01:17;;;;;;;6.10;3.07;;;7.60;99.90;9.00;96848.00;;;;5081824;28;20234;-87
2023/02/22 09:04:19;;;;;;;11.10;3.47;;;8.00;99.90;9.10;96850.00;;;;5089159;28;20289;-85
2023/02/22 09:07:09;;;;;;;8.03;3.53;;;6.50;99.90;9.60;96850.00;;;;5097513;28;20217;-86
2023/02/22 09:10:03;;;;;;;7.83;4.03;;;6.90;99.90;9.70;96847.00;;;;5081828;28;20196;-85
2023/02/22 09:12:55;;;;;;;7.40;3.13;;;7.10;99.90;9.60;96841.00;;;;5061547;28;20291;-85
2023/02/22 09:15:46;;;;;;;4.53;2.73;;;8.50;99.90;9.80;96851.00;;;;5076991;28;20200;-85
2023/02/22 09:18:35;;;;;;;6.23;3.43;;;8.50;99.90;10.30;96846.00;;;;5079885;28;20204;-86
2023/02/22 09:21:32;;;;;;;13.50;3.63;;;8.70;99.90;10.50;96836.00;;;;5062912;28;20228;-86
2023/02/22 09:24:22;;;;;;;8.63;3.43;;;8.90;99.90;10.70;96851.00;;;;5098500;28;20206;-85
2023/02/22 09:27:18;;;;;;;3.57;2.97;;;9.20;99.90;11.00;96851.00;;;;5071118;28;20442;-85
2023/02/22 09:30:12;;;;;;;5.43;4.07;;;10.80;99.90;11.30;96844.00;;;;5090662;28;20200;-86
2023/02/22 09:33:09;;;;;;;5.87;3.63;;;9.70;99.90;11.60;96834.00;;;;5068299;28;20192;-86
2023/02/22 09:36:01;;;;;;;4.83;3.30;;;9.80;99.90;11.90;96838.00;;;;5068527;28;20200;-86
2023/02/22 09:38:51;;;;;;;4.23;3.67;;;10.10;99.90;12.10;96843.00;;;;5061884;28;20196;-86
2023/02/22 09:42:26;;;;;;;10.13;4.00;;;10.40;99.90;12.80;96844.00;;;;5066450;28;20223;-83
2023/02/22 09:45:22;;;;;;;5.53;4.17;;;10.10;99.90;13.40;96846.00;;;;5075369;28;20202;-85
2023/02/22 09:48:17;;;;;;;10.53;5.73;;;11.10;99.90;13.30;96844.00;;;;5071867;28;20192;-85
2023/02/22 09:51:21;;;;;;;10.00;5.87;;;11.30;99.90;13.50;96841.00;;;;5081687;28;20220;-85
2023/02/22 09:54:24;;;;;;;9.83;6.87;;;11.50;99.90;14.00;96833.00;;;;5074473;28;20195;-85
2023/02/22 09:57:20;;;;;;;9.60;6.03;;;11.90;99.90;14.20;96840.00;;;;5074203;28;20617;-85
2023/02/22 10:00:18;;;;;;;16.33;8.93;;;12.10;99.90;14.60;96845.00;;;;5062090;28;20196;-87
2023/02/22 10:03:22;;;;;;;9.23;4.27;;;12.30;99.90;14.60;96832.00;;;;5067477;28;20695;-85
2023/02/22 10:06:14;;;;;;;9.10;5.70;;;12.50;99.90;14.30;96827.00;;;;5068746;28;20280;-90
2023/02/22 10:09:07;;;;;;;9.10;5.57;;;12.50;99.90;15.20;96826.00;;;;5068280;28;20196;-86
2023/02/22 10:12:00;;;;;;;9.97;6.30;;;12.80;99.90;14.70;96818.00;;;;5073925;28;20249;-84
2023/02/22 10:15:37;;;;;;;6.40;4.37;;;13.00;99.90;15.00;96822.00;;;;5066483;28;20551;-86
2023/02/22 10:19:10;;;;;;;10.80;5.57;;;13.10;99.90;15.40;96818.00;;;;5069913;28;20208;-85
2023/02/22 10:22:22;;;;;;;7.23;5.27;;;13.40;99.90;15.70;96812.00;;;;5073251;28;20223;-86
2023/02/22 10:25:18;;;;;;;8.43;4.77;;;13.60;99.90;16.20;96810.00;;;;5082169;28;20575;-86
2023/02/22 10:28:15;;;;;;;8.37;5.77;;;13.80;99.90;15.80;96802.00;;;;5060474;28;20200;-86
2023/02/22 10:31:09;;;;;;;9.60;5.17;;;12.90;99.70;16.20;96802.00;;;;5075187;28;20242;-85
2023/02/22 10:34:04;;;;;;;5.93;4.73;;;14.30;99.90;16.70;96794.00;;;;5079425;28;20211;-85
2023/02/22 10:37:00;;;;;;;5.90;4.97;;;14.50;99.60;16.70;96800.00;;;;5073550;28;20214;-88
2023/02/22 10:39:52;;;;;;;7.67;5.77;;;14.50;98.00;17.00;96805.00;;;;5070146;28;20204;-86
2023/02/22 10:42:40;;;;;;;8.67;5.80;;;14.70;98.20;17.20;96795.00;;;;5073118;28;20223;-85
2023/02/22 10:45:32;;;;;;;8.20;5.70;;;14.80;97.70;17.30;96792.00;;;;5094479;28;20199;-87
2023/02/22 10:48:30;;;;;;;10.73;6.17;;;15.20;96.20;17.30;96789.00;;;;5059492;28;20207;-86
2023/02/22 10:51:23;;;;;;;8.80;5.03;;;15.30;96.00;17.80;96787.00;;;;5071603;28;20223;-86
2023/02/22 10:54:26;;;;;;;10.17;5.23;;;15.60;96.00;17.60;96783.00;;;;5074577;28;20209;-85
2023/02/22 10:57:23;;;;;;;7.90;4.67;;;15.90;94.50;17.70;96770.00;;;;5066568;28;20196;-87
2023/02/22 11:00:25;;;;;;;9.17;4.67;;;16.10;94.00;17.40;96766.00;;;;5065192;28;20205;-85
2023/02/22 11:03:19;;;;;;;5.30;4.43;;;16.30;93.10;18.20;96764.00;;;;5072876;28;20270;-87
2023/02/22 11:06:21;;;;;;;6.47;4.40;;;16.40;92.10;17.90;96755.00;;;;5071501;28;20219;-85
2023/02/22 11:09:16;;;;;;;10.73;5.63;;;16.60;91.40;17.20;96745.00;;;;5076816;28;20691;-85
2023/02/22 11:12:11;;;;;;;10.33;5.10;;;16.70;90.80;18.40;96749.00;;;;5076978;28;20585;-85
2023/02/22 11:15:28;;;;;;;9.97;5.77;;;16.90;91.10;17.00;96734.00;;;;5077273;28;20670;-86
2023/02/22 11:18:26;;;;;;;5.93;4.77;;;16.80;88.70;17.80;96728.00;;;;5028193;28;20196;-85
2023/02/22 11:21:23;;;;;;;9.07;5.17;;;16.70;88.80;18.20;96733.00;;;;5071473;28;20573;-86
2023/02/22 11:24:15;;;;;;;6.77;4.60;;;16.70;89.30;19.10;96722.00;;;;5063626;28;20205;-86
2023/02/22 11:27:08;;;;;;;7.40;5.27;;;16.80;89.00;20.10;96729.00;;;;5074393;28;20210;-86
2023/02/22 11:30:21;;;;;;;7.60;4.97;;;17.20;89.90;19.60;96715.00;;;;5070727;28;20216;-86
2023/02/22 11:33:22;;;;;;;6.90;5.63;;;16.80;86.40;18.40;96704.00;;;;5070448;28;20719;-87
2023/02/22 11:36:15;;;;;;;10.87;5.73;;;17.70;85.10;19.50;96708.00;;;;5060505;28;20210;-86
2023/02/22 11:39:56;;;;;;;8.93;4.97;;;17.80;84.90;18.60;96701.00;;;;5073856;28;20195;-86
2023/02/22 11:42:46;;;;;;;9.93;5.67;;;17.80;82.80;19.30;96687.00;;;;5062957;28;20226;-87
2023/02/22 11:45:37;;;;;;;8.00;5.33;;;17.70;84.10;18.80;96680.00;;;;5072266;28;20196;-86
2023/02/22 11:48:37;;;;;;;9.53;5.40;;;17.80;85.30;19.00;96676.00;;;;5067355;28;20241;-86
2023/02/22 11:51:43;;;;;;;10.70;6.07;;;17.60;83.60;18.50;96679.00;;;;5073035;28;20281;-85
2023/02/22 11:55:01;;;;;;;9.33;5.77;;;17.90;82.50;18.20;96665.00;;;;5068900;28;20200;-86
2023/02/22 11:58:21;;;;;;;9.73;5.63;;;17.70;83.10;18.50;96667.00;;;;5051433;28;20196;-85
2023/02/22 12:01:21;;;;;;;10.90;6.53;;;17.70;82.10;19.50;96654.00;;;;5053467;28;20228;-87
2023/02/22 12:05:08;;;;;;;8.93;5.77;;;17.90;81.60;18.40;96655.00;;;;5072354;28;20701;-86
2023/02/22 12:08:19;;;;;;;9.13;6.10;;;18.10;79.60;19.80;96654.00;;;;5056570;28;20212;-86
2023/02/22 12:11:19;;;;;;;9.27;6.20;;;18.20;80.70;20.60;96651.00;;;;5060636;28;20224;-86
2023/02/22 12:14:33;;;;;;;8.57;4.93;;;18.40;79.80;21.10;96647.00;;;;5066426;28;20223;-86
2023/02/22 12:17:50;;;;;;;8.97;6.23;;;18.60;78.60;21.30;96655.00;;;;5070808;28;20192;-85
2023/02/22 12:20:56;;;;;;;8.20;5.83;;;19.00;76.00;21.50;96638.00;;;;5079746;28;20703;-85
2023/02/22 12:24:04;;;;;;;9.87;5.27;;;19.70;73.10;21.90;96638.00;;;;5073962;28;20191;-86
2023/02/22 12:27:02;;;;;;;11.87;7.07;;;19.90;72.30;22.70;96638.00;;;;5087467;28;20199;-86
2023/02/22 12:29:59;;;;;;;6.43;5.67;;;20.30;71.60;20.90;96635.00;;;;5060345;28;20564;-86
2023/02/22 12:33:04;;;;;;;8.53;5.97;;;;;20.40;96627.00;;;;5061489;28;20220;-86
2023/02/22 12:35:56;;;;;;;8.77;5.50;;;;;20.10;96617.00;;;;5072554;28;20198;-86
2023/02/22 12:38:55;;;;;;;7.40;5.80;;;;;19.90;96611.00;;;;5062723;28;20211;-88
2023/02/22 12:41:48;;;;;;;6.90;5.00;;;;;19.80;96600.00;;;;5056526;28;20223;-87
2023/02/22 12:44:42;;;;;;;10.83;5.83;;;;;21.00;96610.00;;;;5063051;28;20682;-88
2023/02/22 12:47:35;;;;;;;7.90;5.67;;;;;22.10;96610.00;;;;5064980;28;20196;-87
2023/02/22 12:50:33;;;;;;;9.55;6.85;;;;;20.10;96600.00;;;;5067304;28;20196;-86
2023/02/22 12:53:27;;;;;;;10.73;6.30;;;;;19.70;96591.00;;;;5060506;28;20279;-85
2023/02/22 12:56:26;;;;;;;9.30;6.40;;;;;21.00;96593.00;;;;5067681;28;20207;-86
2023/02/22 12:59:19;;;;;;;5.90;5.10;;;;;23.00;96603.00;;;;5068217;28;20203;-86
2023/02/22 13:02:15;;;;;;;8.07;5.70;;;;;22.60;96598.00;;;;5070393;28;20234;-87
2023/02/22 13:05:05;;;;;;;9.63;5.83;;;;;22.90;96608.00;;;;5065788;28;20195;-86
2023/02/22 13:08:12;;;;;;;8.37;6.33;;;;;20.90;96588.00;;;;5065265;28;20306;-86
2023/02/22 13:11:23;;;;;;;8.10;6.03;;;;;22.00;96579.00;;;;5069092;28;20228;-87
2023/02/22 13:14:34;;;;;;;5.97;5.20;;;;;23.20;96580.00;;;;5066945;28;20211;-87
2023/02/22 13:17:30;;;;;;;7.40;5.57;;;;;24.90;96577.00;;;;5065758;28;20574;-86
2023/02/22 13:20:23;;;;;;;9.43;6.33;;;;;25.10;96575.00;;;;5062972;28;20222;-87